createdAt,value
2023-11-07T00:04:02.492Z,9.06
2023-11-07T00:09:15.071Z,8.98
2023-11-07T00:15:01.552Z,8.88
2023-11-07T00:20:18.732Z,8.75
2023-11-07T00:25:22.354Z,8.65
2023-11-07T00:30:26.016Z,8.59
2023-11-07T00:35:29.618Z,8.53
2023-11-07T00:40:41.306Z,8.49
2023-11-07T00:46:02.646Z,8.45
2023-11-07T00:51:09.677Z,8.40
2023-11-07T00:56:17.910Z,8.35
2023-11-07T01:01:34.798Z,8.27
2023-11-07T01:06:47.830Z,8.21
2023-11-07T01:11:52.250Z,8.16
2023-11-07T01:16:55.999Z,8.14
2023-11-07T01:22:05.174Z,8.14
2023-11-07T01:27:09.048Z,8.20
2023-11-07T01:32:22.216Z,8.27
2023-11-07T01:37:46.163Z,8.33
2023-11-07T01:42:50.035Z,8.40
2023-11-07T01:47:57.173Z,8.46
2023-11-07T01:53:02.607Z,8.52
2023-11-07T01:58:11.134Z,8.59
2023-11-07T02:03:35.300Z,8.66
2023-11-07T02:08:39.107Z,8.68
2023-11-07T02:13:51.680Z,8.73
2023-11-07T02:18:55.336Z,8.77
2023-11-07T02:24:08.122Z,8.76
2023-11-07T02:29:11.620Z,8.76
2023-11-07T02:34:15.433Z,8.80
2023-11-07T02:39:19.307Z,8.82
2023-11-07T02:44:24.982Z,8.81
2023-11-07T02:49:28.958Z,8.80
2023-11-07T02:54:32.623Z,8.82
2023-11-07T02:59:47.854Z,8.84
2023-11-07T03:04:56.122Z,8.87
2023-11-07T03:09:59.864Z,8.88
2023-11-07T03:15:03.892Z,8.92
2023-11-07T03:20:11.526Z,8.94
2023-11-07T03:25:15.225Z,8.91
2023-11-07T03:30:19.266Z,8.90
2023-11-07T03:35:28.669Z,8.91
2023-11-07T03:40:32.844Z,8.85
2023-11-07T03:45:45.478Z,8.80
2023-11-07T03:50:55.004Z,8.78
2023-11-07T03:55:59.636Z,8.76
2023-11-07T04:01:04.421Z,8.76
2023-11-07T04:06:28.459Z,8.74
2023-11-07T04:11:52.573Z,8.73
2023-11-07T04:17:06.113Z,8.74
2023-11-07T04:22:17.266Z,8.78
2023-11-07T04:27:20.890Z,8.74
2023-11-07T04:33:07.562Z,8.71
2023-11-07T04:38:25.779Z,8.65
2023-11-07T04:43:56.743Z,8.64
2023-11-07T04:49:10.997Z,8.63
2023-11-07T04:54:17.597Z,8.57
2023-11-07T04:59:21.317Z,8.56
2023-11-07T05:04:24.954Z,8.60
2023-11-07T05:09:37.886Z,8.59
2023-11-07T05:14:41.642Z,8.56
2023-11-07T05:19:45.634Z,8.55
2023-11-07T05:24:49.155Z,8.44
2023-11-07T05:29:56.133Z,8.34
2023-11-07T05:34:59.675Z,8.24
2023-11-07T05:40:06.325Z,8.16
2023-11-07T05:45:11.977Z,8.11
2023-11-07T05:50:16.363Z,8.12
2023-11-07T05:55:20.520Z,8.17
2023-11-07T06:00:24.359Z,8.10
2023-11-07T06:05:35.693Z,8.05
2023-11-07T06:10:42.304Z,8.05
2023-11-07T06:15:51.335Z,8.02
2023-11-07T06:21:15.368Z,8.02
2023-11-07T06:26:22.859Z,8.00
2023-11-07T06:31:28.381Z,8.00
2023-11-07T06:36:47.117Z,7.99
2023-11-07T06:41:52.673Z,7.99
2023-11-07T06:46:57.222Z,8.06
2023-11-07T06:52:01.323Z,8.18
2023-11-07T06:57:13.997Z,8.31
2023-11-07T07:02:29.158Z,8.47
2023-11-07T07:07:35.830Z,8.64
2023-11-07T07:12:40.475Z,8.78
2023-11-07T07:17:44.120Z,8.89
2023-11-07T07:22:48.418Z,8.97
2023-11-07T07:27:56.431Z,9.02
2023-11-07T07:33:01.598Z,9.10
2023-11-07T07:38:05.432Z,9.17
2023-11-07T07:43:12.564Z,9.20
2023-11-07T07:48:16.292Z,9.34
2023-11-07T07:53:22.950Z,9.40
2023-11-07T07:58:26.644Z,9.45
2023-11-07T08:03:33.977Z,9.48
2023-11-07T08:09:04.113Z,9.51
2023-11-07T08:14:17.138Z,9.52
2023-11-07T08:19:38.186Z,9.61
2023-11-07T08:24:53.686Z,9.75
2023-11-07T08:30:00.817Z,9.90
2023-11-07T08:35:09.092Z,10.05
2023-11-07T08:40:26.468Z,10.09
2023-11-07T08:45:38.373Z,10.07
2023-11-07T08:50:47.178Z,10.08
2023-11-07T08:55:51.959Z,10.20
2023-11-07T09:00:58.657Z,10.28
2023-11-07T09:06:06.714Z,10.40
2023-11-07T09:11:18.382Z,10.49
2023-11-07T09:16:26.561Z,10.58
2023-11-07T09:21:30.433Z,10.63
2023-11-07T09:26:36.406Z,10.73
2023-11-07T09:31:46.677Z,10.72
2023-11-07T09:36:57.572Z,10.81
2023-11-07T09:42:09.968Z,10.88
2023-11-07T09:47:17.918Z,10.85
2023-11-07T09:52:28.871Z,10.85
2023-11-07T09:57:43.462Z,10.88
2023-11-07T10:02:47.285Z,10.93
2023-11-07T10:07:51.214Z,10.98
2023-11-07T10:13:08.574Z,10.99
2023-11-07T10:18:20.744Z,10.94
2023-11-07T10:23:33.847Z,10.92
2023-11-07T10:28:46.431Z,10.87
2023-11-07T10:33:59.378Z,10.77
2023-11-07T10:39:03.798Z,10.74
2023-11-07T10:44:17.288Z,10.73
2023-11-07T10:49:23.214Z,10.78
2023-11-07T10:54:44.673Z,10.78
2023-11-07T11:00:19.726Z,10.88
2023-11-07T11:05:45.318Z,10.88
2023-11-07T11:10:53.944Z,10.86
2023-11-07T11:16:01.852Z,10.93
2023-11-07T11:21:18.197Z,10.97
2023-11-07T11:26:55.988Z,11.07
2023-11-07T11:32:29.552Z,11.09
2023-11-07T11:38:13.538Z,11.22
2023-11-07T11:43:19.172Z,11.40
2023-11-07T11:48:52.495Z,11.47
2023-11-07T11:54:01.104Z,11.49
2023-11-07T11:59:12.547Z,11.53
2023-11-07T12:04:42.228Z,11.56
2023-11-07T12:09:51.604Z,11.71
2023-11-07T12:14:55.848Z,11.81
2023-11-07T12:20:08.651Z,11.79
2023-11-07T12:25:21.666Z,11.71
2023-11-07T12:30:26.276Z,11.65
2023-11-07T12:35:32.525Z,11.72
2023-11-07T12:40:38.185Z,11.77
2023-11-07T12:45:47.854Z,11.71
2023-11-07T12:50:51.922Z,11.70
2023-11-07T12:55:59.206Z,11.62
2023-11-07T13:01:09.303Z,11.56
2023-11-07T13:06:20.791Z,11.53
2023-11-07T13:11:28.048Z,11.50
2023-11-07T13:16:31.593Z,11.49
2023-11-07T13:21:38.052Z,11.46
2023-11-07T13:26:42.083Z,11.42
2023-11-07T13:31:49.030Z,11.45
2023-11-07T13:37:01.331Z,11.60
2023-11-07T13:42:16.512Z,11.68
2023-11-07T13:47:25.339Z,11.74
2023-11-07T13:52:28.957Z,11.70
2023-11-07T13:57:32.597Z,11.65
2023-11-07T14:02:36.415Z,11.51
2023-11-07T14:07:40.735Z,11.37
2023-11-07T14:12:45.595Z,11.32
2023-11-07T14:17:49.156Z,11.21
2023-11-07T14:22:54.094Z,11.04
2023-11-07T14:28:00.435Z,10.92
2023-11-07T14:33:05.443Z,10.77
2023-11-07T14:38:10.706Z,10.63
2023-11-07T14:43:17.442Z,10.53
2023-11-07T14:48:23.561Z,10.45
2023-11-07T14:53:28.445Z,10.39
2023-11-07T14:58:31.899Z,10.38
2023-11-07T15:03:35.683Z,10.36
2023-11-07T15:08:39.802Z,10.31
2023-11-07T15:13:49.500Z,10.30
2023-11-07T15:18:54.205Z,10.26
2023-11-07T15:23:58.069Z,10.23
2023-11-07T15:29:01.680Z,10.24
2023-11-07T15:34:06.487Z,10.26
2023-11-07T15:39:16.379Z,10.26
2023-11-07T15:44:21.450Z,10.31
2023-11-07T15:49:25.385Z,10.36
2023-11-07T15:54:37.908Z,10.41
2023-11-07T15:59:41.831Z,10.44
2023-11-07T16:04:50.777Z,10.48
2023-11-07T16:09:54.638Z,10.54
2023-11-07T16:14:58.467Z,10.55
2023-11-07T16:20:06.439Z,10.54
2023-11-07T16:25:10.371Z,10.53
2023-11-07T16:30:16.971Z,10.56
2023-11-07T16:35:20.612Z,10.52
2023-11-07T16:40:24.711Z,10.54
2023-11-07T16:45:28.569Z,10.60
2023-11-07T16:50:32.468Z,10.59
2023-11-07T16:55:36.281Z,10.57
2023-11-07T17:00:39.899Z,10.55
2023-11-07T17:05:52.471Z,10.51
2023-11-07T17:10:55.990Z,10.46
2023-11-07T17:16:00.604Z,10.41
2023-11-07T17:21:04.475Z,10.37
2023-11-07T17:26:08.295Z,10.35
2023-11-07T17:31:13.905Z,10.25
2023-11-07T17:36:35.790Z,10.15
2023-11-07T17:41:39.677Z,10.01
2023-11-07T17:46:43.746Z,9.90
2023-11-07T17:51:50.059Z,9.80
2023-11-07T17:56:54.122Z,9.72
2023-11-07T18:02:08.741Z,9.65
2023-11-07T18:07:14.370Z,9.59
2023-11-07T18:12:28.412Z,9.54
2023-11-07T18:17:52.491Z,9.48
2023-11-07T18:22:57.282Z,9.45
2023-11-07T18:28:02.387Z,9.42
2023-11-07T18:33:06.324Z,9.36
2023-11-07T18:38:10.098Z,9.24
2023-11-07T18:43:13.758Z,9.14
2023-11-07T18:48:17.824Z,9.10
2023-11-07T18:53:30.879Z,9.08
2023-11-07T18:58:41.238Z,9.10
2023-11-07T19:03:55.301Z,9.14
2023-11-07T19:08:59.382Z,9.19
2023-11-07T19:14:11.917Z,9.21
2023-11-07T19:19:15.535Z,9.26
2023-11-07T19:24:29.388Z,9.26
2023-11-07T19:29:32.989Z,9.20
2023-11-07T19:34:39.885Z,9.16
2023-11-07T19:39:44.544Z,9.16
2023-11-07T19:44:51.936Z,9.15
2023-11-07T19:49:55.761Z,9.16
2023-11-07T19:54:59.448Z,9.13
2023-11-07T20:00:03.620Z,9.16
2023-11-07T20:05:27.841Z,9.21
2023-11-07T20:10:32.776Z,9.25
2023-11-07T20:15:36.310Z,9.26
2023-11-07T20:20:41.541Z,9.23
2023-11-07T20:25:45.163Z,9.22
2023-11-07T20:30:48.982Z,9.20
2023-11-07T20:35:52.435Z,9.16
2023-11-07T20:40:57.145Z,9.14
2023-11-07T20:46:01.915Z,9.12
2023-11-07T20:51:07.062Z,9.14
2023-11-07T20:56:12.435Z,9.15
2023-11-07T21:01:17.754Z,9.19
2023-11-07T21:06:21.372Z,9.22
2023-11-07T21:11:25.001Z,9.25
2023-11-07T21:16:28.634Z,9.30
2023-11-07T21:21:32.559Z,9.33
2023-11-07T21:26:39.337Z,9.35
2023-11-07T21:31:43.268Z,9.33
2023-11-07T21:36:46.930Z,9.31
2023-11-07T21:41:50.611Z,9.31
2023-11-07T21:46:55.974Z,9.28
2023-11-07T21:51:59.792Z,9.18
2023-11-07T21:57:06.099Z,9.12
2023-11-07T22:02:10.152Z,9.07
2023-11-07T22:07:45.464Z,9.06
2023-11-07T22:12:56.749Z,9.07
2023-11-07T22:18:05.839Z,9.11
2023-11-07T22:23:19.261Z,9.16
2023-11-07T22:28:43.484Z,9.18
2023-11-07T22:33:53.727Z,9.22
2023-11-07T22:39:02.985Z,9.26
2023-11-07T22:44:28.828Z,9.29
2023-11-07T22:49:51.806Z,9.33
2023-11-07T22:55:04.229Z,9.34
2023-11-07T23:00:12.228Z,9.34
2023-11-07T23:05:21.351Z,9.34
2023-11-07T23:10:25.012Z,9.36
2023-11-07T23:15:28.796Z,9.38
2023-11-07T23:20:41.994Z,9.38
2023-11-07T23:25:45.599Z,9.36
2023-11-07T23:30:50.418Z,9.36
2023-11-07T23:36:17.252Z,9.38
2023-11-07T23:41:33.314Z,9.42
2023-11-07T23:46:45.950Z,9.47
2023-11-07T23:51:55.098Z,9.46
2023-11-07T23:57:04.963Z,9.44
